createdAt,value
2018-09-13T00:00:35.628Z,0
2018-09-13T00:01:37.713Z,0
2018-09-13T00:02:39.811Z,0
2018-09-13T00:03:41.921Z,0
2018-09-13T00:04:44.018Z,0
2018-09-13T00:05:46.558Z,0
2018-09-13T00:06:48.913Z,0
2018-09-13T00:07:51.002Z,0
2018-09-13T00:08:53.116Z,0
2018-09-13T00:09:55.217Z,0
2018-09-13T00:10:57.340Z,0
2018-09-13T00:11:59.404Z,0
2018-09-13T00:13:01.512Z,0
2018-09-13T00:14:03.890Z,0
2018-09-13T00:15:06.297Z,0
2018-09-13T00:16:08.695Z,0
2018-09-13T00:17:10.788Z,0
2018-09-13T00:18:12.894Z,0
2018-09-13T00:19:15.005Z,0
2018-09-13T00:20:17.103Z,0
2018-09-13T00:21:19.488Z,0
2018-09-13T00:22:21.595Z,0
2018-09-13T00:23:23.698Z,0
2018-09-13T00:24:25.794Z,0
2018-09-13T00:25:27.905Z,0
2018-09-13T00:26:30.682Z,0
2018-09-13T00:27:32.778Z,0
2018-09-13T00:28:35.182Z,0
2018-09-13T00:29:37.282Z,0
2018-09-13T00:30:39.371Z,0
2018-09-13T00:31:41.859Z,0
2018-09-13T00:32:43.966Z,0
2018-09-13T00:33:46.378Z,0
2018-09-13T00:34:48.463Z,0
2018-09-13T00:35:50.562Z,0
2018-09-13T00:36:52.674Z,0
2018-09-13T00:37:54.757Z,0
2018-09-13T00:38:57.160Z,0
2018-09-13T00:39:59.656Z,0
2018-09-13T00:41:01.745Z,0
2018-09-13T00:42:03.860Z,0
2018-09-13T00:43:06.246Z,0
2018-09-13T00:44:08.342Z,0
2018-09-13T00:45:10.716Z,0
2018-09-13T00:46:12.833Z,0
2018-09-13T00:47:14.918Z,0
2018-09-13T00:48:17.015Z,0
2018-09-13T00:49:19.130Z,0
2018-09-13T00:50:21.215Z,0
2018-09-13T00:51:23.613Z,0
2018-09-13T00:52:25.714Z,0
2018-09-13T00:53:28.102Z,0
2018-09-13T00:54:30.183Z,0
2018-09-13T00:55:32.682Z,0
2018-09-13T00:56:34.776Z,0
2018-09-13T00:57:36.872Z,0
2018-09-13T00:58:38.990Z,0
2018-09-13T00:59:41.762Z,0
2018-09-13T01:00:43.859Z,0
2018-09-13T01:01:45.966Z,0
2018-09-13T01:02:48.064Z,0
2018-09-13T01:03:50.151Z,0
2018-09-13T01:04:52.647Z,0
2018-09-13T01:05:54.736Z,0
2018-09-13T01:06:56.836Z,0
2018-09-13T01:07:58.939Z,0
2018-09-13T01:09:01.037Z,0
2018-09-13T01:10:03.138Z,0
2018-09-13T01:11:05.515Z,0
2018-09-13T01:12:07.910Z,0
2018-09-13T01:13:10.010Z,0
2018-09-13T01:14:12.101Z,0
2018-09-13T01:15:14.207Z,0
2018-09-13T01:16:16.300Z,0
2018-09-13T01:17:18.403Z,0
2018-09-13T01:18:20.501Z,0
2018-09-13T01:19:23.009Z,0
2018-09-13T01:20:25.123Z,0
2018-09-13T01:21:27.226Z,0
2018-09-13T01:22:29.330Z,0
2018-09-13T01:23:31.413Z,0
2018-09-13T01:24:33.518Z,0
2018-09-13T01:25:35.616Z,0
2018-09-13T01:26:37.719Z,0
2018-09-13T01:27:39.815Z,0
2018-09-13T01:28:41.923Z,0
2018-09-13T01:29:44.016Z,0
2018-09-13T01:30:46.118Z,0
2018-09-13T01:31:48.227Z,0
2018-09-13T01:32:50.315Z,0
2018-09-13T01:33:52.701Z,0
2018-09-13T01:34:55.113Z,0
2018-09-13T01:35:57.211Z,0
2018-09-13T01:36:59.302Z,0
2018-09-13T01:38:01.403Z,0
2018-09-13T01:39:03.797Z,0
2018-09-13T01:40:05.903Z,0
2018-09-13T01:41:08.018Z,0
2018-09-13T01:42:10.431Z,0
2018-09-13T01:43:12.522Z,0
2018-09-13T01:44:14.643Z,0
2018-09-13T01:45:16.733Z,0
2018-09-13T01:46:18.830Z,0
2018-09-13T01:47:20.942Z,0
2018-09-13T01:48:23.311Z,0
2018-09-13T01:49:25.707Z,0
2018-09-13T01:50:27.806Z,0
2018-09-13T01:51:29.932Z,0
2018-09-13T01:52:32.297Z,0
2018-09-13T01:53:34.402Z,0
2018-09-13T01:54:36.801Z,0
2018-09-13T01:55:38.887Z,0
2018-09-13T01:56:41.014Z,0
2018-09-13T01:57:43.118Z,0
2018-09-13T01:58:45.521Z,0
2018-09-13T01:59:47.612Z,0
2018-09-13T02:00:49.728Z,0
2018-09-13T02:01:51.818Z,0
2018-09-13T02:02:53.916Z,0
2018-09-13T02:03:56.021Z,0
2018-09-13T02:04:58.407Z,0
2018-09-13T02:06:00.513Z,0
2018-09-13T02:07:02.624Z,0
2018-09-13T02:08:05.021Z,0
2018-09-13T02:09:07.118Z,0
2018-09-13T02:10:09.222Z,0
2018-09-13T02:11:11.320Z,0
2018-09-13T02:12:13.421Z,0
2018-09-13T02:13:15.521Z,0
2018-09-13T02:14:17.919Z,0
2018-09-13T02:15:20.015Z,0
2018-09-13T02:16:22.714Z,0
2018-09-13T02:17:24.801Z,0
2018-09-13T02:18:26.907Z,0
2018-09-13T02:19:29.403Z,0
2018-09-13T02:20:31.491Z,0
2018-09-13T02:21:33.604Z,0
2018-09-13T02:22:35.980Z,0
2018-09-13T02:23:38.088Z,0
2018-09-13T02:24:40.480Z,0
2018-09-13T02:25:42.968Z,0
2018-09-13T02:26:45.071Z,0
2018-09-13T02:27:47.167Z,0
2018-09-13T02:28:49.253Z,0
2018-09-13T02:29:51.751Z,0
2018-09-13T02:30:53.843Z,0
2018-09-13T02:31:56.400Z,0
2018-09-13T02:32:59.508Z,0
2018-09-13T02:34:02.339Z,0
2018-09-13T02:35:04.815Z,0
2018-09-13T02:36:07.212Z,0
2018-09-13T02:37:09.612Z,0
2018-09-13T02:38:12.277Z,0
2018-09-13T02:39:15.277Z,0
2018-09-13T02:40:17.392Z,0
2018-09-13T02:41:19.774Z,0
2018-09-13T02:42:22.554Z,0
2018-09-13T02:43:24.950Z,0
2018-09-13T02:44:27.044Z,0
2018-09-13T02:45:29.151Z,0
2018-09-13T02:46:31.249Z,0
2018-09-13T02:47:33.343Z,0
2018-09-13T02:48:35.461Z,0
2018-09-13T02:49:37.873Z,0
2018-09-13T02:50:39.953Z,0
2018-09-13T02:51:42.347Z,0
2018-09-13T02:52:44.737Z,0
2018-09-13T02:53:46.841Z,0
2018-09-13T02:54:48.963Z,0
2018-09-13T02:55:51.058Z,0
2018-09-13T02:56:53.155Z,0
2018-09-13T02:57:55.526Z,0
2018-09-13T02:58:57.635Z,0
2018-09-13T03:00:00.122Z,0
2018-09-13T03:01:02.224Z,0
2018-09-13T03:02:04.633Z,0
2018-09-13T03:03:06.731Z,0
2018-09-13T03:04:08.826Z,0
2018-09-13T03:05:10.927Z,0
2018-09-13T03:06:13.019Z,0
2018-09-13T03:07:15.136Z,0
2018-09-13T03:08:17.270Z,0
2018-09-13T03:09:19.325Z,0
2018-09-13T03:10:21.823Z,0
2018-09-13T03:11:23.907Z,0
2018-09-13T03:12:26.017Z,0
2018-09-13T03:13:28.506Z,0
2018-09-13T03:14:30.598Z,0
2018-09-13T03:15:32.694Z,0
2018-09-13T03:16:35.101Z,0
2018-09-13T03:17:37.212Z,0
2018-09-13T03:18:39.315Z,0
2018-09-13T03:19:41.799Z,0
2018-09-13T03:20:43.882Z,0
2018-09-13T03:21:45.991Z,0
2018-09-13T03:22:48.679Z,0
2018-09-13T03:23:50.760Z,0
2018-09-13T03:24:52.859Z,0
2018-09-13T03:25:55.243Z,0
2018-09-13T03:26:57.331Z,0
2018-09-13T03:27:59.444Z,0
2018-09-13T03:29:01.929Z,0
2018-09-13T03:30:04.840Z,0
2018-09-13T03:31:07.643Z,0
2018-09-13T03:32:09.761Z,0
2018-09-13T03:33:11.846Z,0
2018-09-13T03:34:13.942Z,0
2018-09-13T03:35:16.048Z,0
2018-09-13T03:36:18.151Z,0
2018-09-13T03:37:20.243Z,0
2018-09-13T03:38:23.027Z,0
2018-09-13T03:39:25.416Z,0
2018-09-13T03:40:27.501Z,0
2018-09-13T03:41:29.614Z,0
2018-09-13T03:42:32.014Z,0
2018-09-13T03:43:34.403Z,0
2018-09-13T03:44:36.487Z,0
2018-09-13T03:45:38.596Z,0
2018-09-13T03:46:40.693Z,0
2018-09-13T03:47:42.779Z,0
2018-09-13T03:48:44.875Z,0
2018-09-13T03:49:46.979Z,0
2018-09-13T03:50:49.072Z,0
2018-09-13T03:51:51.173Z,0
2018-09-13T03:52:53.680Z,0
2018-09-13T03:53:55.765Z,0
2018-09-13T03:54:57.858Z,0
2018-09-13T03:55:59.981Z,0
2018-09-13T03:57:02.369Z,0
2018-09-13T03:58:04.466Z,0
2018-09-13T03:59:06.574Z,0
2018-09-13T04:00:08.661Z,0
2018-09-13T04:01:10.779Z,0
2018-09-13T04:02:13.273Z,0
2018-09-13T04:03:15.773Z,0
2018-09-13T04:04:18.133Z,0
2018-09-13T04:05:20.535Z,0
2018-09-13T04:06:22.624Z,0
2018-09-13T04:07:24.728Z,0
2018-09-13T04:08:26.831Z,0
2018-09-13T04:09:28.920Z,0
2018-09-13T04:10:31.717Z,0
2018-09-13T04:11:33.811Z,0
2018-09-13T04:12:35.916Z,0
2018-09-13T04:13:38.289Z,0
2018-09-13T04:14:40.689Z,0
2018-09-13T04:15:43.361Z,0
2018-09-13T04:16:45.457Z,0
2018-09-13T04:17:47.572Z,0
2018-09-13T04:18:50.658Z,0
2018-09-13T04:19:52.994Z,0
2018-09-13T04:20:55.094Z,0
2018-09-13T04:21:57.191Z,0
2018-09-13T04:23:00.331Z,0
2018-09-13T04:24:02.822Z,0
2018-09-13T04:25:04.907Z,0
2018-09-13T04:26:07.308Z,0
2018-09-13T04:27:09.410Z,0
2018-09-13T04:28:11.507Z,0
2018-09-13T04:29:13.590Z,0
2018-09-13T04:30:16.006Z,0
2018-09-13T04:31:18.412Z,0
2018-09-13T04:32:21.289Z,0
2018-09-13T04:33:24.070Z,0
2018-09-13T04:34:26.154Z,0
2018-09-13T04:35:28.279Z,0
2018-09-13T04:36:30.363Z,0
2018-09-13T04:37:32.781Z,0
2018-09-13T04:38:34.863Z,0
2018-09-13T04:39:36.967Z,0
2018-09-13T04:40:39.065Z,0
2018-09-13T04:41:41.170Z,0
2018-09-13T04:42:43.265Z,0
2018-09-13T04:43:45.350Z,1
2018-09-13T04:44:47.448Z,1
2018-09-13T04:45:49.537Z,1
2018-09-13T04:46:51.647Z,1
2018-09-13T04:47:54.025Z,1
2018-09-13T04:48:56.123Z,1
2018-09-13T04:49:58.224Z,1
2018-09-13T04:51:00.308Z,1
2018-09-13T04:52:02.702Z,2
2018-09-13T04:53:04.801Z,2
2018-09-13T04:54:07.545Z,2
2018-09-13T04:55:09.641Z,2
2018-09-13T04:56:11.744Z,2
2018-09-13T04:57:14.229Z,2
2018-09-13T04:58:16.318Z,3
2018-09-13T04:59:18.801Z,3
2018-09-13T05:00:20.995Z,3
2018-09-13T05:01:22.998Z,3
2018-09-13T05:02:25.380Z,4
2018-09-13T05:03:27.488Z,4
2018-09-13T05:04:29.581Z,4
2018-09-13T05:05:31.673Z,4
2018-09-13T05:06:34.219Z,5
2018-09-13T05:07:36.816Z,5
2018-09-13T05:08:38.915Z,5
2018-09-13T05:09:41.011Z,6
2018-09-13T05:10:43.114Z,6
2018-09-13T05:11:45.199Z,6
2018-09-13T05:12:47.737Z,7
2018-09-13T05:13:49.779Z,7
2018-09-13T05:14:51.864Z,7
2018-09-13T05:15:53.972Z,8
2018-09-13T05:16:56.058Z,8
2018-09-13T05:17:58.156Z,9
2018-09-13T05:19:00.538Z,9
2018-09-13T05:20:02.648Z,9
2018-09-13T05:21:04.738Z,9
2018-09-13T05:22:07.229Z,10
2018-09-13T05:23:09.620Z,10
2018-09-13T05:24:11.711Z,10
2018-09-13T05:25:14.097Z,10
2018-09-13T05:26:16.184Z,11
2018-09-13T05:27:18.958Z,11
2018-09-13T05:28:21.050Z,11
2018-09-13T05:29:23.495Z,11
2018-09-13T05:30:25.534Z,12
2018-09-13T05:31:27.955Z,12
2018-09-13T05:32:30.046Z,12
2018-09-13T05:33:32.134Z,12
2018-09-13T05:34:34.228Z,12
2018-09-13T05:35:36.318Z,12
2018-09-13T05:36:38.428Z,12
2018-09-13T05:37:40.822Z,12
2018-09-13T05:38:42.930Z,12
2018-09-13T05:39:45.019Z,12
2018-09-13T05:40:47.407Z,12
2018-09-13T05:41:49.509Z,12
2018-09-13T05:42:51.608Z,12
2018-09-13T05:43:54.118Z,12
2018-09-13T05:44:56.502Z,12
2018-09-13T05:45:58.599Z,12
2018-09-13T05:47:01.080Z,13
2018-09-13T05:48:03.517Z,13
2018-09-13T05:49:05.575Z,13
2018-09-13T05:50:07.667Z,13
2018-09-13T05:51:09.823Z,13
2018-09-13T05:52:12.687Z,13
2018-09-13T05:53:14.802Z,13
2018-09-13T05:54:16.889Z,13
2018-09-13T05:55:19.278Z,13
2018-09-13T05:56:22.053Z,14
2018-09-13T05:57:24.132Z,14
2018-09-13T05:58:26.623Z,14
2018-09-13T05:59:29.011Z,14
2018-09-13T06:00:31.109Z,14
2018-09-13T06:01:33.519Z,14
2018-09-13T06:02:35.908Z,14
2018-09-13T06:03:37.997Z,14
2018-09-13T06:04:40.096Z,14
2018-09-13T06:05:42.198Z,14
2018-09-13T06:06:44.288Z,14
2018-09-13T06:07:46.386Z,14
2018-09-13T06:08:48.494Z,15
2018-09-13T06:09:50.580Z,15
2018-09-13T06:10:52.986Z,15
2018-09-13T06:11:55.091Z,16
2018-09-13T06:12:57.195Z,16
2018-09-13T06:13:59.272Z,16
2018-09-13T06:15:01.376Z,16
2018-09-13T06:16:03.764Z,17
2018-09-13T06:17:06.253Z,17
2018-09-13T06:18:08.339Z,18
2018-09-13T06:19:10.447Z,18
2018-09-13T06:20:12.541Z,20
2018-09-13T06:21:15.015Z,19
2018-09-13T06:22:17.125Z,20
2018-09-13T06:23:19.229Z,21
2018-09-13T06:24:21.320Z,21
2018-09-13T06:25:23.727Z,21
2018-09-13T06:26:25.843Z,22
2018-09-13T06:27:28.322Z,21
2018-09-13T06:28:30.421Z,22
2018-09-13T06:29:32.595Z,22
2018-09-13T06:30:35.043Z,22
2018-09-13T06:31:37.154Z,23
2018-09-13T06:32:39.639Z,23
2018-09-13T06:33:41.729Z,24
2018-09-13T06:34:43.828Z,26
2018-09-13T06:35:45.933Z,26
2018-09-13T06:36:48.025Z,26
2018-09-13T06:37:50.128Z,24
2018-09-13T06:38:52.233Z,23
2018-09-13T06:39:54.322Z,23
2018-09-13T06:40:57.110Z,23
2018-09-13T06:41:59.217Z,24
2018-09-13T06:43:01.604Z,23
2018-09-13T06:44:03.708Z,25
2018-09-13T06:45:05.813Z,25
2018-09-13T06:46:08.287Z,25
2018-09-13T06:47:10.699Z,26
2018-09-13T06:48:12.793Z,26
2018-09-13T06:49:14.888Z,27
2018-09-13T06:50:16.983Z,28
2018-09-13T06:51:19.098Z,29
2018-09-13T06:52:21.187Z,28
2018-09-13T06:53:23.281Z,29
2018-09-13T06:54:25.386Z,29
2018-09-13T06:55:27.472Z,29
2018-09-13T06:56:29.578Z,29
2018-09-13T06:57:31.680Z,29
2018-09-13T06:58:33.782Z,29
2018-09-13T06:59:35.867Z,29
2018-09-13T07:00:37.979Z,29
2018-09-13T07:01:40.071Z,29
2018-09-13T07:02:42.166Z,29
2018-09-13T07:03:44.288Z,30
2018-09-13T07:04:46.383Z,30
2018-09-13T07:05:48.877Z,30
2018-09-13T07:06:50.990Z,30
2018-09-13T07:07:53.389Z,30
2018-09-13T07:08:56.102Z,31
2018-09-13T07:09:58.215Z,31
2018-09-13T07:11:00.314Z,31
2018-09-13T07:12:02.879Z,31
2018-09-13T07:13:05.284Z,31
2018-09-13T07:14:07.387Z,31
2018-09-13T07:15:09.476Z,32
2018-09-13T07:16:11.595Z,32
2018-09-13T07:17:13.986Z,32
2018-09-13T07:18:16.389Z,32
2018-09-13T07:19:18.497Z,32
2018-09-13T07:20:20.583Z,32
2018-09-13T07:21:22.688Z,32
2018-09-13T07:22:24.795Z,33
2018-09-13T07:23:26.947Z,33
2018-09-13T07:24:29.280Z,33
2018-09-13T07:25:31.683Z,33
2018-09-13T07:26:34.365Z,33
2018-09-13T07:27:36.485Z,34
2018-09-13T07:28:38.590Z,34
2018-09-13T07:29:41.390Z,34
2018-09-13T07:30:43.491Z,34
2018-09-13T07:31:45.589Z,35
2018-09-13T07:32:47.675Z,35
2018-09-13T07:33:49.789Z,35
2018-09-13T07:34:51.891Z,35
2018-09-13T07:35:54.382Z,36
2018-09-13T07:36:57.182Z,36
2018-09-13T07:37:59.575Z,36
2018-09-13T07:39:01.682Z,56
2018-09-13T07:40:03.795Z,150
2018-09-13T07:41:05.895Z,216
2018-09-13T07:42:08.284Z,230
2018-09-13T07:43:10.392Z,237
2018-09-13T07:44:12.487Z,237
2018-09-13T07:45:14.589Z,261
2018-09-13T07:46:17.093Z,263
2018-09-13T07:47:19.191Z,300
2018-09-13T07:48:21.289Z,258
2018-09-13T07:49:23.882Z,194
2018-09-13T07:50:25.895Z,186
2018-09-13T07:51:28.292Z,176
2018-09-13T07:52:30.426Z,181
2018-09-13T07:53:32.496Z,208
2018-09-13T07:54:34.903Z,227
2018-09-13T07:55:37.009Z,212
2018-09-13T07:56:39.121Z,213
2018-09-13T07:57:41.212Z,204
2018-09-13T07:58:43.329Z,202
2018-09-13T07:59:45.828Z,199
2018-09-13T08:00:47.916Z,194
2018-09-13T08:01:50.037Z,218
2018-09-13T08:02:52.957Z,237
2018-09-13T08:03:55.059Z,220
2018-09-13T08:04:57.595Z,204
2018-09-13T08:05:59.689Z,243
2018-09-13T08:07:01.796Z,214
2018-09-13T08:08:03.896Z,200
2018-09-13T08:09:05.997Z,207
2018-09-13T08:10:08.115Z,224
2018-09-13T08:11:10.210Z,234
2018-09-13T08:12:12.419Z,233
2018-09-13T08:13:14.732Z,230
2018-09-13T08:14:16.835Z,223
2018-09-13T08:15:19.567Z,233
2018-09-13T08:16:21.956Z,260
2018-09-13T08:17:24.113Z,264
2018-09-13T08:18:26.220Z,252
2018-09-13T08:19:28.335Z,240
2018-09-13T08:20:30.436Z,243
2018-09-13T08:21:32.549Z,246
2018-09-13T08:22:34.653Z,248
2018-09-13T08:23:36.758Z,261
2018-09-13T08:24:39.253Z,254
2018-09-13T08:25:41.757Z,246
2018-09-13T08:26:43.851Z,260
2018-09-13T08:27:45.959Z,243
2018-09-13T08:28:48.061Z,241
2018-09-13T08:29:50.180Z,253
2018-09-13T08:30:52.276Z,258
2018-09-13T08:31:54.788Z,262
2018-09-13T08:32:56.893Z,266
2018-09-13T08:33:59.004Z,265
2018-09-13T08:35:02.326Z,279
2018-09-13T08:36:04.313Z,275
2018-09-13T08:37:06.902Z,264
2018-09-13T08:38:08.937Z,265
2018-09-13T08:39:11.371Z,263
2018-09-13T08:40:13.539Z,266
2018-09-13T08:41:15.584Z,268
2018-09-13T08:42:17.702Z,261
2018-09-13T08:43:19.800Z,258
2018-09-13T08:44:21.911Z,270
2018-09-13T08:45:24.025Z,280
2018-09-13T08:46:26.531Z,270
2018-09-13T08:47:28.641Z,261
2018-09-13T08:48:31.059Z,258
2018-09-13T08:49:33.174Z,272
2018-09-13T08:50:35.497Z,293
2018-09-13T08:51:37.612Z,301
2018-09-13T08:52:40.071Z,308
2018-09-13T08:53:42.183Z,310
2018-09-13T08:54:44.290Z,302
2018-09-13T08:55:46.708Z,303
2018-09-13T08:56:48.816Z,302
2018-09-13T08:57:50.924Z,313
2018-09-13T08:58:53.047Z,296
2018-09-13T08:59:55.149Z,293
2018-09-13T09:00:57.267Z,294
2018-09-13T09:01:59.380Z,283
2018-09-13T09:03:01.506Z,290
2018-09-13T09:04:03.602Z,307
2018-09-13T09:05:05.725Z,304
2018-09-13T09:06:07.916Z,306
2018-09-13T09:07:09.957Z,310
2018-09-13T09:08:12.092Z,317
2018-09-13T09:09:14.204Z,323
2018-09-13T09:10:16.640Z,324
2018-09-13T09:11:18.755Z,308
2018-09-13T09:12:20.883Z,305
2018-09-13T09:13:22.984Z,312
2018-09-13T09:14:25.105Z,309
2018-09-13T09:15:27.234Z,315
2018-09-13T09:16:29.334Z,313
2018-09-13T09:17:31.856Z,331
2018-09-13T09:18:34.457Z,325
2018-09-13T09:19:36.930Z,299
2018-09-13T09:20:39.051Z,301
2018-09-13T09:21:41.172Z,313
2018-09-13T09:22:43.284Z,316
2018-09-13T09:23:45.728Z,325
2018-09-13T09:24:47.841Z,335
2018-09-13T09:25:49.952Z,329
2018-09-13T09:26:52.366Z,332
2018-09-13T09:27:54.492Z,338
2018-09-13T09:28:57.051Z,336
2018-09-13T09:29:59.147Z,338
2018-09-13T09:31:01.275Z,357
2018-09-13T09:32:03.385Z,383
2018-09-13T09:33:05.512Z,358
2018-09-13T09:34:07.653Z,358
2018-09-13T09:35:10.112Z,369
2018-09-13T09:36:12.613Z,349
2018-09-13T09:37:14.743Z,356
2018-09-13T09:38:16.851Z,371
2018-09-13T09:39:18.974Z,264
2018-09-13T09:40:21.102Z,355
2018-09-13T09:41:23.786Z,360
2018-09-13T09:42:25.913Z,379
2018-09-13T09:43:28.037Z,359
2018-09-13T09:44:30.156Z,342
2018-09-13T09:45:32.263Z,338
2018-09-13T09:46:34.394Z,351
2018-09-13T09:47:36.924Z,344
2018-09-13T09:48:39.048Z,339
2018-09-13T09:49:41.180Z,361
2018-09-13T09:50:43.300Z,366
2018-09-13T09:51:45.422Z,361
2018-09-13T09:52:47.555Z,356
2018-09-13T09:53:49.969Z,346
2018-09-13T09:54:52.081Z,358
2018-09-13T09:55:54.207Z,361
2018-09-13T09:56:56.317Z,366
2018-09-13T09:57:58.979Z,286
2018-09-13T09:59:01.044Z,351
2018-09-13T10:00:03.462Z,235
2018-09-13T10:01:05.591Z,209
2018-09-13T10:02:07.705Z,332
2018-09-13T10:03:09.908Z,430
2018-09-13T10:04:12.002Z,232
2018-09-13T10:05:14.067Z,254
2018-09-13T10:06:16.198Z,210
2018-09-13T10:07:18.315Z,195
2018-09-13T10:08:20.434Z,171
2018-09-13T10:09:22.542Z,162
2018-09-13T10:10:24.674Z,276
2018-09-13T10:11:26.783Z,224
2018-09-13T10:12:29.283Z,290
2018-09-13T10:13:31.697Z,231
2018-09-13T10:14:33.801Z,144
2018-09-13T10:15:35.930Z,382
2018-09-13T10:16:38.053Z,372
2018-09-13T10:17:40.182Z,398
2018-09-13T10:18:42.671Z,388
2018-09-13T10:19:44.803Z,286
2018-09-13T10:20:46.914Z,358
2018-09-13T10:21:49.032Z,380
2018-09-13T10:22:51.542Z,339
2018-09-13T10:23:53.598Z,306
2018-09-13T10:24:55.715Z,304
2018-09-13T10:25:58.129Z,372
2018-09-13T10:27:00.334Z,365
2018-09-13T10:28:03.229Z,303
2018-09-13T10:29:05.360Z,298
2018-09-13T10:30:07.465Z,372
2018-09-13T10:31:09.590Z,384
2018-09-13T10:32:11.719Z,376
2018-09-13T10:33:13.838Z,345
2018-09-13T10:34:16.236Z,359
2018-09-13T10:35:18.369Z,374
2018-09-13T10:36:20.484Z,364
2018-09-13T10:37:22.602Z,357
2018-09-13T10:38:24.716Z,380
2018-09-13T10:39:26.847Z,422
2018-09-13T10:40:29.020Z,415
2018-09-13T10:41:31.546Z,392
2018-09-13T10:42:33.621Z,341
2018-09-13T10:43:35.745Z,361
2018-09-13T10:44:37.855Z,421
2018-09-13T10:45:39.979Z,419
2018-09-13T10:46:42.161Z,376
2018-09-13T10:47:44.285Z,422
2018-09-13T10:48:46.386Z,406
2018-09-13T10:49:48.799Z,396
2018-09-13T10:50:50.922Z,396
2018-09-13T10:51:53.026Z,385
2018-09-13T10:52:55.152Z,379
2018-09-13T10:53:57.270Z,380
2018-09-13T10:54:59.385Z,433
2018-09-13T10:56:01.831Z,415
2018-09-13T10:57:03.939Z,400
2018-09-13T10:58:06.063Z,415
2018-09-13T10:59:08.635Z,326
2018-09-13T11:00:11.077Z,434
2018-09-13T11:01:13.188Z,223
2018-09-13T11:02:15.312Z,263
2018-09-13T11:03:17.425Z,275
2018-09-13T11:04:19.558Z,322
2018-09-13T11:05:21.674Z,217
2018-09-13T11:06:23.793Z,391
2018-09-13T11:07:25.903Z,377
2018-09-13T11:08:28.042Z,384
2018-09-13T11:09:30.152Z,384
2018-09-13T11:10:32.310Z,390
2018-09-13T11:11:34.786Z,400
2018-09-13T11:12:36.898Z,389
2018-09-13T11:13:39.020Z,393
2018-09-13T11:14:41.142Z,378
2018-09-13T11:15:43.664Z,377
2018-09-13T11:16:45.784Z,376
2018-09-13T11:17:47.896Z,374
2018-09-13T11:18:50.018Z,363
2018-09-13T11:19:52.156Z,373
2018-09-13T11:20:54.650Z,212
2018-09-13T11:21:56.784Z,114
2018-09-13T11:22:59.224Z,297
2018-09-13T11:24:01.357Z,108
2018-09-13T11:25:03.470Z,292
2018-09-13T11:26:05.597Z,386
2018-09-13T11:27:07.718Z,318
2018-09-13T11:28:09.844Z,131
2018-09-13T11:29:11.975Z,115
2018-09-13T11:30:14.086Z,133
2018-09-13T11:31:16.210Z,86
2018-09-13T11:32:18.342Z,83
2018-09-13T11:33:20.460Z,80
2018-09-13T11:34:22.568Z,85
2018-09-13T11:35:24.978Z,90
2018-09-13T11:36:27.091Z,92
2018-09-13T11:37:29.510Z,104
2018-09-13T11:38:31.644Z,108
2018-09-13T11:39:33.770Z,118
2018-09-13T11:40:36.080Z,112
2018-09-13T11:41:38.014Z,104
2018-09-13T11:42:40.126Z,93
2018-09-13T11:43:42.240Z,86
2018-09-13T11:44:44.363Z,88
2018-09-13T11:45:46.855Z,89
2018-09-13T11:46:48.979Z,89
2018-09-13T11:47:51.096Z,86
2018-09-13T11:48:53.217Z,89
2018-09-13T11:49:55.332Z,99
2018-09-13T11:50:57.451Z,105
2018-09-13T11:51:59.567Z,99
2018-09-13T11:53:01.676Z,98
2018-09-13T11:54:03.912Z,97
2018-09-13T11:55:05.914Z,96
2018-09-13T11:56:08.415Z,96
2018-09-13T11:57:10.524Z,97
2018-09-13T11:58:12.652Z,96
2018-09-13T11:59:14.760Z,94
2018-09-13T12:00:16.880Z,91
2018-09-13T12:01:19.933Z,90
2018-09-13T12:02:21.984Z,90
2018-09-13T12:03:24.113Z,92
2018-09-13T12:04:26.284Z,98
2018-09-13T12:05:28.696Z,104
2018-09-13T12:06:30.814Z,105
2018-09-13T12:07:32.938Z,106
2018-09-13T12:08:35.054Z,108
2018-09-13T12:09:37.215Z,109
2018-09-13T12:10:39.286Z,110
2018-09-13T12:11:41.392Z,108
2018-09-13T12:12:43.803Z,109
2018-09-13T12:13:45.934Z,108
2018-09-13T12:14:48.036Z,110
2018-09-13T12:15:50.157Z,112
2018-09-13T12:16:52.278Z,116
2018-09-13T12:17:54.445Z,117
2018-09-13T12:18:56.510Z,119
2018-09-13T12:19:58.620Z,120
2018-09-13T12:21:00.732Z,124
2018-09-13T12:22:02.837Z,132
2018-09-13T12:23:04.960Z,135
2018-09-13T12:24:07.060Z,139
2018-09-13T12:25:09.171Z,154
2018-09-13T12:26:11.292Z,144
2018-09-13T12:27:13.389Z,143
2018-09-13T12:28:15.516Z,149
2018-09-13T12:29:17.626Z,148
2018-09-13T12:30:19.747Z,157
2018-09-13T12:31:21.851Z,153
2018-09-13T12:32:23.974Z,152
2018-09-13T12:33:26.094Z,172
2018-09-13T12:34:28.209Z,157
2018-09-13T12:35:30.615Z,157
2018-09-13T12:36:32.739Z,160
2018-09-13T12:37:34.858Z,153
2018-09-13T12:38:36.962Z,151
2018-09-13T12:39:39.083Z,145
2018-09-13T12:40:41.208Z,148
2018-09-13T12:41:43.317Z,147
2018-09-13T12:42:45.835Z,150
2018-09-13T12:43:47.950Z,138
2018-09-13T12:44:50.062Z,136
2018-09-13T12:45:52.175Z,135
2018-09-13T12:46:54.584Z,140
2018-09-13T12:47:56.683Z,135
2018-09-13T12:48:59.091Z,132
2018-09-13T12:50:01.780Z,131
2018-09-13T12:51:03.847Z,130
2018-09-13T12:52:06.294Z,135
2018-09-13T12:53:08.385Z,134
2018-09-13T12:54:10.502Z,133
2018-09-13T12:55:12.603Z,131
2018-09-13T12:56:14.781Z,128
2018-09-13T12:57:16.836Z,125
2018-09-13T12:58:19.344Z,124
2018-09-13T12:59:21.473Z,123
2018-09-13T13:00:23.569Z,123
2018-09-13T13:01:25.695Z,119
2018-09-13T13:02:27.807Z,115
2018-09-13T13:03:29.926Z,116
2018-09-13T13:04:32.023Z,116
2018-09-13T13:05:34.540Z,117
2018-09-13T13:06:36.975Z,125
2018-09-13T13:07:39.408Z,140
2018-09-13T13:08:41.595Z,131
2018-09-13T13:09:43.653Z,112
2018-09-13T13:10:45.763Z,101
2018-09-13T13:11:47.870Z,107
2018-09-13T13:12:49.996Z,100
2018-09-13T13:13:52.190Z,125
2018-09-13T13:14:54.302Z,184
2018-09-13T13:15:56.434Z,99
2018-09-13T13:16:58.597Z,99
2018-09-13T13:18:00.661Z,100
2018-09-13T13:19:02.768Z,97
2018-09-13T13:20:04.896Z,89
2018-09-13T13:21:06.995Z,87
2018-09-13T13:22:09.118Z,117
2018-09-13T13:23:11.233Z,157
2018-09-13T13:24:13.627Z,96
2018-09-13T13:25:15.798Z,125
2018-09-13T13:26:17.905Z,113
2018-09-13T13:27:20.040Z,81
2018-09-13T13:28:22.745Z,75
2018-09-13T13:29:25.263Z,64
2018-09-13T13:30:27.371Z,64
2018-09-13T13:31:30.408Z,62
2018-09-13T13:32:32.609Z,62
2018-09-13T13:33:35.015Z,63
2018-09-13T13:34:37.817Z,63
2018-09-13T13:35:40.317Z,64
2018-09-13T13:36:42.438Z,62
2018-09-13T13:37:44.534Z,61
2018-09-13T13:38:46.658Z,61
2018-09-13T13:39:48.763Z,65
2018-09-13T13:40:51.462Z,71
2018-09-13T13:41:53.591Z,73
2018-09-13T13:42:55.695Z,75
2018-09-13T13:43:58.604Z,77
2018-09-13T13:45:00.669Z,81
2018-09-13T13:46:02.778Z,94
2018-09-13T13:47:04.877Z,87
2018-09-13T13:48:06.986Z,82
2018-09-13T13:49:09.106Z,84
2018-09-13T13:50:11.497Z,83
2018-09-13T13:51:13.917Z,78
2018-09-13T13:52:16.033Z,77
2018-09-13T13:53:18.147Z,79
2018-09-13T13:54:20.248Z,74
2018-09-13T13:55:22.356Z,73
2018-09-13T13:56:24.479Z,73
2018-09-13T13:57:26.589Z,75
2018-09-13T13:58:29.004Z,80
2018-09-13T13:59:31.112Z,84
2018-09-13T14:00:33.228Z,84
2018-09-13T14:01:35.330Z,81
2018-09-13T14:02:37.495Z,81
2018-09-13T14:03:39.556Z,71
2018-09-13T14:04:41.960Z,65
2018-09-13T14:05:44.078Z,66
2018-09-13T14:06:46.176Z,67
2018-09-13T14:07:48.287Z,67
2018-09-13T14:08:50.786Z,66
2018-09-13T14:09:52.998Z,64
2018-09-13T14:10:55.022Z,62
2018-09-13T14:11:57.143Z,61
2018-09-13T14:12:59.248Z,61
2018-09-13T14:14:01.354Z,61
2018-09-13T14:15:03.479Z,62
2018-09-13T14:16:05.577Z,62
2018-09-13T14:17:07.697Z,63
2018-09-13T14:18:09.817Z,63
2018-09-13T14:19:11.939Z,63
2018-09-13T14:20:14.725Z,61
2018-09-13T14:21:17.122Z,59
2018-09-13T14:22:19.220Z,57
2018-09-13T14:23:21.339Z,56
2018-09-13T14:24:23.458Z,55
2018-09-13T14:25:25.575Z,54
2018-09-13T14:26:28.356Z,56
2018-09-13T14:27:30.489Z,70
2018-09-13T14:28:32.907Z,56
2018-09-13T14:29:35.018Z,75
2018-09-13T14:30:37.136Z,46
2018-09-13T14:31:39.236Z,45
2018-09-13T14:32:41.354Z,44
2018-09-13T14:33:43.768Z,44
2018-09-13T14:34:45.895Z,43
2018-09-13T14:35:48.379Z,43
2018-09-13T14:36:50.500Z,43
2018-09-13T14:37:52.903Z,43
2018-09-13T14:38:55.004Z,42
2018-09-13T14:39:57.164Z,41
2018-09-13T14:40:59.238Z,40
2018-09-13T14:42:01.354Z,38
2018-09-13T14:43:04.066Z,37
2018-09-13T14:44:06.194Z,35
2018-09-13T14:45:09.085Z,34
2018-09-13T14:46:11.202Z,34
2018-09-13T14:47:13.314Z,34